Time;durP1;ratioP1;P1;durP2;ratioP2;P2;SDS_P1;SDS_P2;PMS_P1;PMS_P2;Temp;Humidity;BMP_temperature;BMP_pressure;BME280_temperature;BME280_humidity;BME280_pressure;Samples;Min_cycle;Max_cycle;Signal;HPM_P1;HPM_P2
2022/02/10 00:04:20;;;;;;;5.72;4.43;;;;;;;1.49;100.00;96539.41;5114244;28;24976;-74
2022/02/10 00:07:05;;;;;;;4.80;3.90;;;;;;;1.49;100.00;96545.34;5114100;28;24479;-75
2022/02/10 00:17:46;;;;;;;6.13;4.18;;;;;;;1.10;100.00;96519.53;5104571;28;24422;-75
2022/02/10 00:20:24;;;;;;;6.97;4.40;;;;;;;1.02;100.00;96528.16;5114071;28;24961;-74
2022/02/10 00:23:13;;;;;;;5.67;3.97;;;;;;;0.92;100.00;96524.88;5114006;28;24522;-74
2022/02/10 00:34:23;;;;;;;8.07;3.97;;;;;;;0.86;100.00;96518.16;5088022;28;24459;-74
2022/02/10 00:36:58;;;;;;;4.60;3.87;;;;;;;0.99;100.00;96518.00;5087611;28;24419;-75
2022/02/10 00:39:37;;;;;;;5.25;3.60;;;;;;;1.08;100.00;96511.06;5088002;28;24437;-74
2022/02/10 00:42:04;;;;;;;4.72;3.78;;;;;;;1.09;100.00;96517.84;5087725;28;24951;-75
2022/02/10 00:44:32;;;;;;;6.68;4.13;;;;;;;1.04;100.00;96524.72;5087890;28;24426;-75
2022/02/10 00:46:58;;;;;;;4.13;3.72;;;;;;;1.04;100.00;96514.53;5087370;28;24442;-75
2022/02/10 00:49:25;;;;;;;7.70;4.30;;;;;;;0.99;100.00;96512.88;5087617;28;24414;-75
2022/02/10 00:51:51;;;;;;;4.22;3.63;;;;;;;0.92;100.00;96512.13;5087720;28;24430;-75
2022/02/10 00:54:23;;;;;;;5.97;3.63;;;;;;;0.96;100.00;96490.81;5087888;28;24773;-75
2022/02/10 00:56:50;;;;;;;7.10;3.92;;;;;;;0.82;100.00;96500.38;5087441;28;24516;-75
2022/02/10 00:59:27;;;;;;;6.05;4.10;;;;;;;0.68;100.00;96498.00;5087563;28;24430;-75
2022/02/10 01:10:37;;;;;;;4.85;3.80;;;;;;;0.64;100.00;96501.44;5087370;28;24518;-75
2022/02/10 01:13:18;;;;;;;6.33;3.80;;;;;;;0.69;100.00;96500.50;5087328;28;24848;-76
2022/02/10 01:29:39;;;;;;;5.72;4.55;;;;;;;0.21;100.00;96484.91;5107278;28;24555;-76
2022/02/10 01:32:07;;;;;;;5.75;3.85;;;;;;;0.24;100.00;96481.50;5107275;28;24931;-76
2022/02/10 01:34:39;;;;;;;5.10;3.85;;;;;;;0.22;100.00;96478.13;5107167;28;24517;-74
2022/02/10 01:37:06;;;;;;;5.53;4.20;;;;;;;0.24;100.00;96486.59;5106796;28;24521;-76
2022/02/10 01:39:39;;;;;;;5.95;3.80;;;;;;;0.34;100.00;96480.56;5096585;28;24430;-76
2022/02/10 02:03:17;;;;;;;6.40;3.40;;;;;;;0.64;100.00;96469.13;5093093;28;24788;-76
2022/02/10 02:04:10;;;;;;;6.55;3.28;;;;;;;0.38;100.00;96458.44;5092902;28;24417;-76
2022/02/10 02:06:43;;;;;;;5.00;3.67;;;;;;;0.48;100.00;96462.53;5092531;28;24957;-75
2022/02/10 02:09:12;;;;;;;5.75;4.25;;;;;;;0.57;100.00;96447.13;5092934;28;24429;-76
2022/02/10 02:11:40;;;;;;;4.80;4.03;;;;;;;0.61;100.00;96453.88;5092991;28;24654;-75
2022/02/10 02:14:07;;;;;;;5.00;3.80;;;;;;;0.39;100.00;96442.28;5092912;28;24506;-75
2022/02/10 02:16:34;;;;;;;7.75;3.90;;;;;;;0.44;100.00;96445.59;5092786;28;24429;-75
2022/02/10 02:19:00;;;;;;;6.82;4.00;;;;;;;0.41;100.00;96440.56;5092951;28;24766;-75
2022/02/10 02:21:28;;;;;;;5.38;3.80;;;;;;;0.50;100.00;96442.97;5092831;28;24426;-75
2022/02/10 02:23:56;;;;;;;5.35;3.95;;;;;;;0.56;100.00;96422.53;5092660;28;24960;-75
2022/02/10 02:26:25;;;;;;;4.57;3.60;;;;;;;0.48;100.00;96429.41;5092429;28;24414;-75
2022/02/10 02:28:55;;;;;;;4.90;3.80;;;;;;;0.43;100.00;96421.81;5092289;28;24445;-75
2022/02/10 02:31:26;;;;;;;5.65;4.05;;;;;;;0.46;100.00;96415.84;5092521;28;24966;-74
2022/02/10 02:37:12;;;;;;;5.80;3.83;;;;;;;0.48;100.00;96420.06;5092114;28;24420;-75
2022/02/10 02:40:07;;;;;;;4.75;3.22;;;;;;;0.51;100.00;96419.16;5092146;28;24417;-74
2022/02/10 03:04:50;;;;;;;5.00;3.72;;;;;;;-0.46;100.00;96404.13;5091703;28;24417;-74
2022/02/10 03:07:29;;;;;;;6.35;3.72;;;;;;;-0.56;100.00;96411.00;5091586;28;24445;-74
2022/02/10 03:10:07;;;;;;;5.30;3.53;;;;;;;-0.27;100.00;96408.19;5091804;28;24426;-74
2022/02/10 03:12:37;;;;;;;4.13;3.25;;;;;;;-0.11;100.00;96410.56;5091701;28;24513;-74
2022/02/10 03:15:06;;;;;;;6.90;3.57;;;;;;;-0.12;100.00;96404.63;5091534;28;24525;-75
2022/02/10 03:17:44;;;;;;;7.45;4.07;;;;;;;-0.01;100.00;96407.06;5091535;28;24446;-76
2022/02/10 03:20:23;;;;;;;5.40;4.03;;;;;;;0.05;100.00;96401.91;5091679;28;24475;-74
2022/02/10 03:59:47;;;;;;;5.55;4.05;;;;;;;0.03;100.00;96401.06;5091534;28;24520;-75
2022/02/10 04:01:55;;;;;;;4.67;3.80;;;;;;;-1.11;100.00;96403.84;5090648;28;24409;-75
2022/02/10 04:04:46;;;;;;;5.35;3.88;;;;;;;-0.98;100.00;96407.13;5091170;28;24428;-75
2022/02/10 04:10:41;;;;;;;6.23;3.50;;;;;;;-1.15;100.00;96398.75;5048250;28;24450;-75
2022/02/10 04:13:16;;;;;;;5.13;3.53;;;;;;;-1.12;100.00;96396.22;5047943;28;24525;-75
2022/02/10 04:15:48;;;;;;;6.20;4.32;;;;;;;-1.16;100.00;96404.72;5077580;28;24488;-74
2022/02/10 04:21:12;;;;;;;3.92;3.42;;;;;;;-1.01;100.00;96392.72;5090704;28;24402;-74
2022/02/10 04:24:02;;;;;;;4.70;3.67;;;;;;;-0.91;100.00;96401.13;5090492;28;24448;-75
2022/02/10 04:26:36;;;;;;;4.78;3.08;;;;;;;-0.86;100.00;96407.03;5090140;28;25024;-75
2022/02/10 04:38:02;;;;;;;5.55;3.78;;;;;;;-1.02;100.00;96385.13;5090455;28;24497;-75
2022/02/10 05:00:00;;;;;;;7.03;3.47;;;;;;;-0.73;100.00;96383.19;5074322;28;24495;-75
2022/02/10 05:03:20;;;;;;;4.82;3.15;;;;;;;-0.73;100.00;96382.34;5090278;28;24457;-75
2022/02/10 05:19:47;;;;;;;6.13;3.70;;;;;;;-0.75;100.00;96381.50;5094004;28;24475;-75
2022/02/10 05:22:32;;;;;;;6.88;4.38;;;;;;;-0.68;100.00;96379.75;5092702;28;24484;-75
2022/02/10 05:33:26;;;;;;;7.35;3.97;;;;;;;-0.40;100.00;96373.56;5046772;28;24847;-76
2022/02/10 05:35:56;;;;;;;5.85;3.40;;;;;;;-0.58;100.00;96374.56;5093655;28;24414;-75
2022/02/10 05:38:28;;;;;;;4.70;3.20;;;;;;;-0.51;100.00;96371.09;5093716;28;24422;-76
2022/02/10 05:44:19;;;;;;;3.58;2.83;;;;;;;-0.26;100.00;96368.28;5092101;28;24434;-76
2022/02/10 05:47:08;;;;;;;5.87;3.30;;;;;;;-0.51;100.00;96371.09;5093131;28;24433;-76
2022/02/10 05:50:04;;;;;;;5.18;3.00;;;;;;;-0.47;100.00;96366.00;5093638;28;24893;-77
2022/02/10 05:52:53;;;;;;;9.32;6.70;;;;;;;-0.55;100.00;96372.00;5093315;28;24979;-76
2022/02/10 05:55:42;;;;;;;9.05;4.70;;;;;;;-0.84;100.00;96369.72;5093148;28;24429;-74
2022/02/10 05:58:17;;;;;;;5.30;3.80;;;;;;;-0.92;100.00;96371.50;5092789;28;24940;-76
2022/02/10 06:47:58;;;;;;;4.53;2.85;;;;;;;-0.73;100.00;96372.19;5091854;28;24456;-76
2022/02/10 06:50:52;;;;;;;4.90;3.00;;;;;;;-0.70;100.00;96374.69;5092151;28;24780;-76
2022/02/10 06:53:37;;;;;;;7.85;5.28;;;;;;;-0.69;100.00;96373.81;5071611;28;24433;-76
2022/02/10 07:07:09;;;;;;;4.50;2.28;;;;;;;-0.33;100.00;96375.19;5030696;28;24435;-77
2022/02/10 07:09:57;;;;;;;6.43;3.20;;;;;;;-0.43;100.00;96377.81;5073006;28;24983;-76
2022/02/10 07:15:43;;;;;;;5.55;3.10;;;;;;;-0.33;100.00;96379.44;5029035;28;24431;-76
2022/02/10 07:48:41;;;;;;;6.50;3.80;;;;;;;1.65;100.00;96350.19;5089551;28;24989;-76
2022/02/10 07:51:32;;;;;;;5.70;3.60;;;;;;;1.86;100.00;96353.22;5088917;28;24536;-76
2022/02/10 07:54:13;;;;;;;6.17;3.53;;;;;;;1.98;100.00;96352.13;5091132;28;24517;-76
2022/02/10 07:56:57;;;;;;;3.63;3.13;;;;;;;2.09;100.00;96345.94;5071206;28;24565;-76
2022/02/10 07:59:56;;;;;;;7.80;4.00;;;;;;;2.29;100.00;96347.22;5070678;28;24465;-77
2022/02/10 08:57:20;;;;;;;6.70;3.60;;;;;;;6.24;100.00;96359.03;5086805;28;24484;-76
2022/02/10 09:00:30;;;;;;;5.55;3.40;;;;;;;6.67;95.94;96373.72;5094290;28;24414;-76
2022/02/10 09:05:46;;;;;;;10.57;4.68;;;;;;;6.49;98.35;96388.13;5094193;28;24483;-76
2022/02/10 09:14:12;;;;;;;6.82;3.80;;;;;;;6.90;94.70;96375.44;5094471;28;24496;-75
2022/02/10 09:20:01;;;;;;;7.13;3.83;;;;;;;7.17;95.49;96376.09;5080264;28;24480;-74
2022/02/10 09:58:36;;;;;;;4.65;3.50;;;;;;;7.50;91.91;96380.78;5093399;28;24455;-77
2022/02/10 10:01:19;;;;;;;7.65;3.88;;;;;;;7.50;92.73;96389.34;5092765;28;24628;-77
2022/02/10 10:03:59;;;;;;;9.88;3.92;;;;;;;7.34;91.44;96388.31;5093090;28;24438;-75
2022/02/10 10:06:52;;;;;;;8.10;3.80;;;;;;;7.35;92.18;96396.88;5093048;28;24413;-75
2022/02/10 10:09:36;;;;;;;6.65;3.88;;;;;;;7.36;91.15;96401.97;5082848;28;24878;-76
2022/02/10 10:15:14;;;;;;;5.53;3.63;;;;;;;7.31;91.37;96403.06;5076681;28;25063;-77
2022/02/10 10:18:07;;;;;;;10.88;3.97;;;;;;;7.25;90.62;96409.28;5089327;28;24430;-76
2022/02/10 10:20:59;;;;;;;10.80;4.32;;;;;;;7.28;91.71;96415.16;5070112;28;24430;-75
2022/02/10 10:23:43;;;;;;;9.05;3.83;;;;;;;7.26;92.16;96408.38;5072380;28;24491;-77
2022/02/10 10:26:30;;;;;;;8.40;4.53;;;;;;;7.26;92.87;96408.38;5072202;28;24435;-76
2022/02/10 10:51:39;;;;;;;10.45;4.47;;;;;;;6.98;94.77;96400.88;5092329;28;24780;-76
2022/02/10 10:54:14;;;;;;;8.65;4.80;;;;;;;6.99;94.82;96405.97;5094490;28;24434;-78
2022/02/10 10:56:45;;;;;;;19.88;4.90;;;;;;;6.89;96.07;96412.38;5082642;28;24843;-76
2022/02/10 11:22:14;;;;;;;8.00;4.00;;;;;;;6.86;95.89;96409.94;5040374;28;24433;-78
2022/02/10 11:39:22;;;;;;;11.80;5.17;;;;;;;6.87;98.51;96377.28;5073184;28;24409;-77
2022/02/10 11:42:50;;;;;;;8.80;4.60;;;;;;;6.82;99.46;96380.03;5091733;28;24851;-76
2022/02/10 14:11:06;;;;;;;7.50;4.50;;;;;;;5.94;100.00;96355.84;5084299;28;24445;-74
2022/02/10 14:13:35;;;;;;;8.68;4.60;;;;;;;5.80;100.00;96369.13;5085814;28;24533;-76
2022/02/10 14:16:29;;;;;;;6.75;4.60;;;;;;;5.84;100.00;96365.56;5086695;28;24434;-75
2022/02/10 14:19:08;;;;;;;8.40;5.07;;;;;;;5.74;100.00;96377.03;5085761;28;24492;-75
2022/02/10 14:21:44;;;;;;;9.98;4.75;;;;;;;5.60;100.00;96374.97;5086473;28;24446;-76
2022/02/10 14:26:55;;;;;;;7.80;5.03;;;;;;;5.43;100.00;96375.50;5087574;28;24453;-75
2022/02/10 14:29:21;;;;;;;10.57;4.75;;;;;;;5.41;100.00;96374.69;5087135;28;24422;-75
2022/02/10 14:31:52;;;;;;;8.32;5.47;;;;;;;5.38;100.00;96377.41;5087096;28;24433;-76
2022/02/10 14:34:25;;;;;;;6.13;4.53;;;;;;;5.40;100.00;96382.47;5087055;28;24453;-77
2022/02/10 14:37:00;;;;;;;11.63;6.68;;;;;;;5.39;100.00;96378.22;5087140;28;24468;-75
2022/02/10 14:39:48;;;;;;;22.98;16.55;;;;;;;5.36;100.00;96380.88;5072147;28;25019;-76
2022/02/10 14:42:53;;;;;;;9.82;5.68;;;;;;;5.33;100.00;96387.78;5055174;28;24453;-75
2022/02/10 15:20:41;;;;;;;7.90;4.53;;;;;;;5.26;100.00;96367.50;5071281;28;24825;-75
2022/02/10 15:52:09;;;;;;;8.90;5.32;;;;;;;4.90;100.00;96375.50;5091862;28;24960;-76
2022/02/10 16:11:35;;;;;;;7.38;3.67;;;;;;;4.85;100.00;96367.91;5072020;28;24489;-75
2022/02/10 16:16:55;;;;;;;5.90;3.58;;;;;;;4.87;99.97;96367.88;5070754;28;24419;-76
2022/02/10 16:19:22;;;;;;;7.00;3.90;;;;;;;4.83;100.00;96368.84;5076169;28;24435;-75
2022/02/10 16:22:00;;;;;;;4.30;3.53;;;;;;;4.79;100.00;96368.13;5091768;28;24899;-75
2022/02/10 16:24:31;;;;;;;7.03;3.83;;;;;;;4.87;99.26;96369.59;5091684;28;24767;-76
2022/02/10 16:27:00;;;;;;;9.90;4.32;;;;;;;4.83;100.00;96367.13;5090446;28;24461;-75
2022/02/10 16:29:32;;;;;;;5.00;3.38;;;;;;;4.87;99.92;96370.44;5092410;28;24828;-75
2022/02/10 16:31:58;;;;;;;5.07;3.63;;;;;;;4.83;100.00;96366.28;5083859;28;24431;-75
2022/02/10 16:34:25;;;;;;;6.78;3.70;;;;;;;4.81;100.00;96357.78;5071133;28;24438;-75
2022/02/10 16:36:53;;;;;;;3.97;3.33;;;;;;;4.82;99.34;96362.03;5070600;28;24415;-75
2022/02/10 16:39:20;;;;;;;7.15;3.63;;;;;;;4.85;99.62;96354.25;5088538;28;24434;-75
2022/02/10 16:41:47;;;;;;;5.38;3.85;;;;;;;4.88;98.63;96355.88;5090605;28;24460;-75
2022/02/10 16:44:14;;;;;;;8.05;4.07;;;;;;;4.79;100.00;96357.84;5091108;28;24421;-75
2022/02/10 16:46:42;;;;;;;6.97;3.45;;;;;;;4.79;99.99;96349.31;5090043;28;25215;-75
2022/02/10 16:49:08;;;;;;;5.35;3.17;;;;;;;4.79;99.47;96350.16;5090893;28;24979;-75
2022/02/10 16:51:37;;;;;;;5.70;3.47;;;;;;;4.78;100.00;96348.47;5111066;28;24463;-75
2022/02/10 16:54:10;;;;;;;4.60;3.10;;;;;;;4.75;100.00;96351.13;5111064;28;24429;-75
2022/02/10 16:56:48;;;;;;;5.20;3.38;;;;;;;4.74;100.00;96348.59;5072001;28;24434;-75
2022/02/10 16:59:28;;;;;;;4.78;3.38;;;;;;;4.75;100.00;96350.28;5076834;28;24440;-75
2022/02/10 17:02:19;;;;;;;6.20;3.50;;;;;;;4.71;100.00;96356.38;5082672;28;24496;-75
2022/02/10 17:05:22;;;;;;;5.32;3.60;;;;;;;4.70;100.00;96352.97;5090679;28;24461;-75
2022/02/10 17:19:04;;;;;;;7.83;3.50;;;;;;;4.64;100.00;96363.44;5090308;28;24815;-76
2022/02/10 17:25:08;;;;;;;5.88;3.60;;;;;;;4.65;100.00;96369.41;5086421;28;24521;-76
2022/02/10 17:27:12;;;;;;;9.30;6.32;;;;;;;4.70;100.00;96372.66;5071894;28;24991;-75
2022/02/10 17:32:28;;;;;;;8.82;4.03;;;;;;;4.59;100.00;96366.13;5088633;28;24434;-75
2022/02/10 17:35:19;;;;;;;6.10;4.00;;;;;;;4.66;100.00;96365.94;5090650;28;24517;-75
2022/02/10 17:46:07;;;;;;;6.00;5.18;;;;;;;4.60;100.00;96360.13;5088126;28;24464;-75
2022/02/10 17:51:31;;;;;;;10.55;4.55;;;;;;;4.65;100.00;96347.16;5090981;28;24422;-76
2022/02/10 17:54:01;;;;;;;8.18;5.55;;;;;;;4.64;100.00;96349.78;5085094;28;24437;-75
2022/02/10 17:56:29;;;;;;;11.50;9.38;;;;;;;4.65;100.00;96343.75;5087657;28;24777;-77
2022/02/10 17:58:56;;;;;;;8.75;5.47;;;;;;;4.59;100.00;96353.28;5087376;28;24479;-76
2022/02/10 18:01:26;;;;;;;6.75;5.68;;;;;;;4.56;100.00;96355.97;5087560;28;24445;-75
2022/02/10 18:03:52;;;;;;;12.07;6.82;;;;;;;4.52;100.00;96356.94;5084211;28;24488;-75
2022/02/10 18:06:23;;;;;;;13.48;9.93;;;;;;;4.46;100.00;96359.69;5088466;28;24460;-76
2022/02/10 18:09:10;;;;;;;17.55;13.68;;;;;;;4.48;100.00;96359.63;5089062;28;24429;-76
2022/02/10 18:14:26;;;;;;;9.83;6.43;;;;;;;4.39;100.00;96363.31;5091012;28;24401;-76
2022/02/10 18:16:56;;;;;;;7.25;6.15;;;;;;;4.46;100.00;96364.81;5091986;28;24792;-76
2022/02/10 18:19:27;;;;;;;6.18;4.40;;;;;;;4.43;100.00;96366.63;5097028;28;24453;-75
2022/02/10 18:22:31;;;;;;;6.57;3.60;;;;;;;4.44;100.00;96360.63;5114107;28;25017;-75
2022/02/10 18:25:04;;;;;;;7.13;4.10;;;;;;;4.40;100.00;96356.47;5098045;28;24517;-76
2022/02/10 18:27:37;;;;;;;6.45;4.40;;;;;;;4.34;100.00;96354.94;5093206;28;24489;-75
2022/02/10 18:30:18;;;;;;;5.32;3.58;;;;;;;4.40;100.00;96353.91;5096021;28;24434;-75
2022/02/10 19:09:00;;;;;;;8.32;4.97;;;;;;;4.42;100.00;96352.97;5084118;28;24442;-75
2022/02/10 19:11:28;;;;;;;4.13;3.30;;;;;;;4.38;100.00;96348.81;5092782;28;24434;-75
2022/02/10 19:13:56;;;;;;;5.95;3.35;;;;;;;4.29;100.00;96344.78;5092456;28;24967;-75
2022/02/10 19:16:23;;;;;;;6.40;4.00;;;;;;;4.26;100.00;96350.00;5083782;28;24976;-75
2022/02/10 19:18:50;;;;;;;4.47;3.20;;;;;;;4.32;100.00;96341.31;5073359;28;24419;-75
2022/02/10 19:21:16;;;;;;;4.65;3.17;;;;;;;4.28;100.00;96344.84;5109970;28;24436;-75
2022/02/10 19:23:42;;;;;;;6.13;2.90;;;;;;;4.29;100.00;96337.09;5113343;28;24422;-75
2022/02/10 19:26:09;;;;;;;4.38;3.35;;;;;;;4.31;100.00;96337.06;5101457;28;24437;-75
2022/02/10 19:28:37;;;;;;;3.60;3.00;;;;;;;4.29;100.00;96336.25;5092642;28;24457;-75
2022/02/10 19:31:06;;;;;;;3.70;3.08;;;;;;;4.35;100.00;96330.97;5093314;28;24431;-75
2022/02/10 19:33:32;;;;;;;4.93;3.22;;;;;;;4.29;100.00;96328.56;5092690;28;24823;-75
2022/02/10 19:36:00;;;;;;;4.63;3.38;;;;;;;4.29;100.00;96328.56;5092707;28;24783;-75
2022/02/10 19:38:29;;;;;;;5.25;3.80;;;;;;;4.29;100.00;96320.88;5092491;28;24430;-75
2022/02/10 19:40:56;;;;;;;5.03;3.60;;;;;;;4.36;100.00;96323.22;5091242;28;24445;-75
2022/02/10 19:43:25;;;;;;;5.47;3.60;;;;;;;4.39;100.00;96322.28;5072282;28;24422;-75
2022/02/10 19:45:53;;;;;;;7.35;4.28;;;;;;;4.36;100.00;96315.50;5075825;28;24967;-75
2022/02/10 19:48:20;;;;;;;5.97;4.50;;;;;;;4.46;100.00;96307.56;5092335;28;24476;-76
2022/02/10 19:50:46;;;;;;;7.95;4.30;;;;;;;4.42;100.00;96311.09;5107354;28;24445;-75
2022/02/10 19:53:14;;;;;;;5.20;4.13;;;;;;;4.40;100.00;96316.25;5112361;28;24456;-75
2022/02/10 19:55:44;;;;;;;7.37;4.70;;;;;;;4.36;100.00;96314.69;5100663;28;24434;-76
2022/02/10 19:58:13;;;;;;;7.10;4.50;;;;;;;4.37;100.00;96313.78;5092353;28;24421;-75
2022/02/10 20:00:44;;;;;;;7.25;6.03;;;;;;;4.28;100.00;96311.50;5092056;28;24434;-75
2022/02/10 20:03:15;;;;;;;11.77;6.90;;;;;;;4.25;100.00;96315.00;5091872;28;24528;-75
2022/02/10 20:05:45;;;;;;;8.73;6.10;;;;;;;4.16;100.00;96314.44;5092060;28;24429;-75
2022/02/10 20:08:13;;;;;;;17.63;11.70;;;;;;;4.08;100.00;96307.81;5091755;28;24515;-75
2022/02/10 20:10:40;;;;;;;30.42;19.38;;;;;;;4.11;100.00;96305.13;5103300;28;24871;-76
2022/02/10 20:13:06;;;;;;;42.40;23.90;;;;;;;4.10;100.00;96305.19;5092087;28;24521;-75
2022/02/10 20:15:34;;;;;;;82.05;52.05;;;;;;;4.10;100.00;96310.31;5090027;28;24513;-75
2022/02/10 20:18:01;;;;;;;71.90;43.30;;;;;;;4.06;100.00;96308.72;5070963;28;24423;-75
2022/02/10 20:20:29;;;;;;;29.70;16.58;;;;;;;4.05;100.00;96307.88;5098409;28;24790;-75
2022/02/10 20:22:56;;;;;;;9.77;5.70;;;;;;;4.08;100.00;96302.69;5112026;28;25020;-75
2022/02/10 20:25:23;;;;;;;8.05;4.65;;;;;;;4.05;100.00;96292.50;5100467;28;24883;-76
2022/02/10 20:27:50;;;;;;;6.17;4.20;;;;;;;4.12;100.00;96296.56;5091359;28;24526;-75
2022/02/10 20:30:16;;;;;;;10.38;6.13;;;;;;;4.11;100.00;96286.34;5102509;28;24434;-75
2022/02/10 20:32:43;;;;;;;6.70;5.22;;;;;;;4.07;100.00;96289.88;5091702;28;24964;-75
2022/02/10 20:35:11;;;;;;;8.80;7.35;;;;;;;4.03;100.00;96291.69;5091409;28;24799;-75
2022/02/10 20:37:39;;;;;;;16.08;6.00;;;;;;;3.96;100.00;96287.63;5091278;28;24453;-75
2022/02/10 20:40:07;;;;;;;8.27;4.47;;;;;;;3.93;100.00;96286.88;5091629;28;24484;-75
2022/02/10 20:42:34;;;;;;;6.13;3.90;;;;;;;3.95;100.00;96275.72;5091241;28;24432;-75
2022/02/10 20:45:01;;;;;;;6.07;4.13;;;;;;;3.94;100.00;96279.16;5087945;28;24434;-75
2022/02/10 20:47:28;;;;;;;5.37;4.27;;;;;;;3.94;100.00;96273.19;5089131;28;25048;-75
2022/02/10 20:49:54;;;;;;;6.47;4.60;;;;;;;3.94;100.00;96275.75;5070781;28;24430;-75
2022/02/10 20:52:21;;;;;;;6.07;4.93;;;;;;;3.91;100.00;96274.13;5089153;28;25009;-75
2022/02/10 20:54:49;;;;;;;7.63;4.53;;;;;;;3.85;100.00;96264.03;5090595;28;25196;-75
2022/02/10 20:57:15;;;;;;;5.43;4.50;;;;;;;3.77;100.00;96265.97;5090912;28;24437;-76
2022/02/10 20:59:45;;;;;;;7.00;4.72;;;;;;;3.71;100.00;96269.56;5091121;28;24422;-76
2022/02/10 21:02:14;;;;;;;6.03;4.65;;;;;;;3.71;100.00;96266.13;5090510;28;24446;-77
2022/02/10 21:04:48;;;;;;;6.03;4.07;;;;;;;3.70;100.00;96257.63;5087980;28;24454;-75
2022/02/10 21:07:19;;;;;;;7.90;4.72;;;;;;;3.72;100.00;96252.47;5090707;28;24521;-75
2022/02/10 21:09:52;;;;;;;6.38;5.00;;;;;;;3.69;100.00;96262.81;5090921;28;24645;-75
2022/02/10 21:12:20;;;;;;;6.72;4.70;;;;;;;3.59;100.00;96257.06;5090768;28;24966;-75
2022/02/10 21:14:47;;;;;;;5.00;3.80;;;;;;;3.56;100.00;96260.59;5091045;28;24425;-75
2022/02/10 21:17:20;;;;;;;5.35;3.72;;;;;;;3.54;100.00;96264.06;5090898;28;24422;-75
2022/02/10 21:19:47;;;;;;;4.57;3.40;;;;;;;3.55;100.00;96261.44;5090648;28;24534;-75
2022/02/10 21:22:17;;;;;;;5.07;4.05;;;;;;;3.55;100.00;96263.16;5090851;28;24484;-76
2022/02/10 21:24:48;;;;;;;9.57;4.15;;;;;;;3.59;100.00;96264.75;5090994;28;24498;-76
2022/02/10 21:27:34;;;;;;;4.75;3.70;;;;;;;3.68;100.00;96261.13;5090452;28;24429;-76
2022/02/10 21:30:05;;;;;;;7.10;4.07;;;;;;;3.75;100.00;96257.50;5090685;28;24541;-75
2022/02/10 21:32:36;;;;;;;5.50;3.78;;;;;;;3.81;100.00;96259.88;5090790;28;24430;-76
2022/02/10 21:35:14;;;;;;;5.93;4.30;;;;;;;3.82;100.00;96254.72;5090506;28;24949;-76
2022/02/10 21:37:47;;;;;;;7.90;4.10;;;;;;;3.92;100.00;96254.44;5090741;28;24503;-75
2022/02/10 21:40:27;;;;;;;6.22;4.20;;;;;;;3.96;100.00;96256.03;5090750;28;24480;-75
2022/02/10 21:52:39;;;;;;;4.38;3.63;;;;;;;4.10;100.00;96251.34;5091964;28;24448;-75
2022/02/10 21:57:10;;;;;;;5.45;3.60;;;;;;;4.04;100.00;96231.88;5094228;28;25006;-75
2022/02/10 21:59:51;;;;;;;4.18;3.55;;;;;;;4.02;100.00;96218.25;5094584;28;24450;-75
2022/02/10 22:10:59;;;;;;;4.72;3.83;;;;;;;3.98;100.00;96203.03;5094409;28;24440;-75
2022/02/10 22:19:02;;;;;;;5.95;3.35;;;;;;;4.11;100.00;96204.31;5088303;28;24496;-75
2022/02/10 22:21:31;;;;;;;3.92;3.30;;;;;;;4.09;100.00;96213.81;5094051;28;24458;-74
2022/02/10 22:24:00;;;;;;;4.73;3.60;;;;;;;4.12;100.00;96219.69;5093875;28;24651;-74
2022/02/10 22:26:29;;;;;;;4.07;3.45;;;;;;;4.16;100.00;96219.59;5093327;28;24422;-74
2022/02/10 22:29:01;;;;;;;6.78;3.88;;;;;;;4.31;100.00;96221.69;5093533;28;24470;-74
2022/02/10 22:31:43;;;;;;;6.63;4.03;;;;;;;4.17;100.00;96221.25;5093374;28;24426;-74
2022/02/10 22:34:25;;;;;;;5.55;3.70;;;;;;;4.05;100.00;96214.78;5093864;28;24426;-74
2022/02/10 22:36:56;;;;;;;4.28;3.72;;;;;;;4.03;100.00;96214.81;5093325;28;24425;-74
2022/02/10 22:39:22;;;;;;;5.43;3.75;;;;;;;3.91;100.00;96209.22;5093587;28;24475;-74
2022/02/10 22:41:49;;;;;;;4.63;3.55;;;;;;;3.99;100.00;96199.56;5093226;28;24414;-74
2022/02/10 22:44:16;;;;;;;7.55;4.45;;;;;;;4.28;100.00;96211.50;5093585;28;24500;-74
2022/02/10 22:46:42;;;;;;;5.72;3.88;;;;;;;3.82;100.00;96206.06;5092935;28;24422;-74
2022/02/10 22:49:10;;;;;;;6.53;4.60;;;;;;;3.74;100.00;96202.84;5093240;28;24477;-74
2022/02/10 22:51:38;;;;;;;7.05;4.47;;;;;;;3.78;100.00;96199.34;5093318;28;24425;-74
2022/02/10 22:54:06;;;;;;;6.00;4.40;;;;;;;3.91;100.00;96202.38;5093098;28;24425;-74
2022/02/10 22:56:33;;;;;;;6.18;3.80;;;;;;;3.93;100.00;96198.06;5092882;28;24421;-74
2022/02/10 22:59:02;;;;;;;6.50;4.43;;;;;;;3.83;100.00;96194.91;5092791;28;24464;-74
2022/02/10 23:01:29;;;;;;;6.20;4.20;;;;;;;3.84;100.00;96201.69;5093127;28;24988;-74
2022/02/10 23:03:56;;;;;;;6.47;5.18;;;;;;;3.79;100.00;96205.31;5093035;28;24427;-75
2022/02/10 23:06:24;;;;;;;6.72;4.63;;;;;;;3.79;100.00;96200.19;5092991;28;24423;-75
2022/02/10 23:08:51;;;;;;;6.28;4.55;;;;;;;3.84;100.00;96206.00;5093062;28;24442;-75
2022/02/10 23:11:26;;;;;;;4.85;3.70;;;;;;;3.79;100.00;96210.44;5093267;28;24452;-75
2022/02/10 23:13:52;;;;;;;7.13;3.87;;;;;;;3.88;100.00;96197.31;5092964;28;24784;-75
2022/02/10 23:16:19;;;;;;;6.13;4.03;;;;;;;3.85;100.00;96200.81;5093237;28;24426;-74
2022/02/10 23:18:45;;;;;;;5.05;3.50;;;;;;;3.86;100.00;96204.25;5092541;28;24422;-74
2022/02/10 23:21:15;;;;;;;4.97;3.55;;;;;;;3.83;100.00;96200.03;5092749;28;24457;-74
2022/02/10 23:23:45;;;;;;;5.35;3.78;;;;;;;3.79;100.00;96206.13;5092578;28;24967;-75
2022/02/10 23:26:13;;;;;;;5.05;3.47;;;;;;;3.88;100.00;96208.41;5092628;28;24505;-74
2022/02/10 23:28:43;;;;;;;5.65;3.17;;;;;;;3.94;100.00;96197.16;5092246;28;24449;-75
2022/02/10 23:31:13;;;;;;;5.60;3.58;;;;;;;3.99;100.00;96202.13;5092467;28;24974;-75
2022/02/10 23:33:43;;;;;;;4.72;3.20;;;;;;;4.05;100.00;96199.41;5092470;28;24445;-75
2022/02/10 23:39:05;;;;;;;4.10;3.30;;;;;;;4.03;100.00;96194.31;5092672;28;24981;-76
2022/02/10 23:44:25;;;;;;;4.20;3.70;;;;;;;4.09;100.00;96200.97;5092157;28;24476;-75
2022/02/10 23:46:53;;;;;;;4.27;2.97;;;;;;;4.22;100.00;96198.88;5092121;28;24953;-75
2022/02/10 23:49:21;;;;;;;4.78;3.30;;;;;;;4.16;100.00;96201.66;5092330;28;24452;-75
2022/02/10 23:51:54;;;;;;;11.02;3.20;;;;;;;4.06;100.00;96201.91;5092092;28;24424;-75
2022/02/10 23:54:23;;;;;;;4.73;3.57;;;;;;;4.01;100.00;96201.22;5092405;28;24897;-75
2022/02/10 23:56:55;;;;;;;3.55;3.13;;;;;;;4.06;100.00;96201.06;5091794;28;24463;-75
2022/02/10 23:59:32;;;;;;;3.30;2.35;;;;;;;4.11;100.00;96207.72;5092159;28;24534;-75
